createdAt,value
2023-04-25T00:01:14.055Z,7.03
2023-04-25T00:03:42.826Z,8.93
2023-04-25T00:06:11.555Z,7.28
2023-04-25T00:08:40.167Z,7.13
2023-04-25T00:11:08.813Z,10.45
2023-04-25T00:13:37.414Z,10.65
2023-04-25T00:16:07.951Z,6.93
2023-04-25T00:18:37.413Z,8.60
2023-04-25T00:21:07.207Z,11.52
2023-04-25T00:23:37.302Z,10.35
2023-04-25T00:26:05.965Z,10.60
2023-04-25T00:28:34.503Z,10.07
2023-04-25T00:31:03.160Z,6.93
2023-04-25T00:33:33.172Z,8.85
2023-04-25T00:36:01.892Z,6.43
2023-04-25T00:38:30.618Z,11.00
2023-04-25T00:40:59.483Z,7.85
2023-04-25T00:43:28.875Z,6.13
2023-04-25T00:45:58.843Z,8.23
2023-04-25T00:48:27.413Z,6.65
2023-04-25T00:50:59.322Z,8.88
2023-04-25T00:53:30.129Z,7.15
2023-04-25T00:55:58.996Z,6.97
2023-04-25T00:58:28.009Z,8.45
2023-04-25T01:00:58.448Z,6.60
2023-04-25T01:03:29.842Z,6.82
2023-04-25T01:05:59.930Z,8.50
2023-04-25T01:08:28.517Z,11.02
2023-04-25T01:10:57.325Z,12.35
2023-04-25T01:13:25.988Z,13.40
2023-04-25T01:15:55.096Z,7.50
2023-04-25T01:18:23.997Z,7.47
2023-04-25T01:20:54.162Z,10.65
2023-04-25T01:23:25.506Z,12.90
2023-04-25T01:25:55.624Z,7.20
2023-04-25T01:28:24.406Z,7.70
2023-04-25T01:30:54.257Z,11.20
2023-04-25T01:33:24.479Z,12.95
2023-04-25T01:35:53.247Z,8.77
2023-04-25T01:38:24.005Z,8.63
2023-04-25T01:40:54.028Z,10.13
2023-04-25T01:43:23.948Z,7.70
2023-04-25T01:45:52.817Z,9.65
2023-04-25T01:48:21.919Z,10.63
2023-04-25T01:50:50.652Z,7.78
2023-04-25T01:53:20.411Z,10.07
2023-04-25T01:55:50.958Z,15.15
2023-04-25T01:58:22.505Z,10.68
2023-04-25T02:01:09.467Z,11.18
2023-04-25T02:03:46.077Z,7.78
2023-04-25T02:06:30.161Z,7.03
2023-04-25T02:09:00.019Z,10.80
2023-04-25T02:11:29.952Z,10.40
2023-04-25T02:14:18.865Z,13.63
2023-04-25T02:17:16.948Z,11.02
2023-04-25T02:19:46.878Z,9.85
2023-04-25T02:22:15.650Z,8.57
2023-04-25T02:24:44.277Z,9.40
2023-04-25T02:27:14.247Z,9.25
2023-04-25T02:29:42.877Z,8.45
2023-04-25T02:32:13.433Z,9.95
2023-04-25T02:34:42.685Z,11.48
2023-04-25T02:37:11.330Z,10.15
2023-04-25T02:39:39.872Z,10.05
2023-04-25T02:42:08.471Z,13.25
2023-04-25T02:44:38.461Z,11.15
2023-04-25T02:47:07.826Z,9.48
2023-04-25T02:49:36.431Z,9.10
2023-04-25T02:52:05.342Z,12.32
2023-04-25T02:54:34.340Z,11.38
2023-04-25T02:57:03.473Z,12.50
2023-04-25T02:59:38.968Z,11.18
2023-04-25T03:02:07.664Z,7.53
2023-04-25T03:04:36.309Z,10.30
2023-04-25T03:07:05.130Z,10.27
2023-04-25T03:09:33.833Z,8.02
2023-04-25T03:12:02.614Z,9.18
2023-04-25T03:14:31.187Z,13.23
2023-04-25T03:17:01.235Z,12.68
2023-04-25T03:19:29.852Z,11.73
2023-04-25T03:21:58.523Z,9.73
2023-04-25T03:24:28.058Z,9.57
2023-04-25T03:26:56.619Z,9.15
2023-04-25T03:29:27.445Z,9.82
2023-04-25T03:31:57.269Z,14.50
2023-04-25T03:34:27.225Z,10.95
2023-04-25T03:36:56.072Z,10.27
2023-04-25T03:39:24.734Z,9.63
2023-04-25T03:41:54.706Z,11.23
2023-04-25T03:44:23.474Z,12.85
2023-04-25T03:46:52.450Z,15.05
2023-04-25T03:49:21.225Z,15.75
2023-04-25T03:52:01.235Z,11.23
2023-04-25T03:54:32.416Z,14.05
2023-04-25T03:57:06.839Z,17.15
2023-04-25T03:59:38.925Z,11.30
2023-04-25T04:02:09.414Z,15.73
2023-04-25T04:04:39.030Z,16.75
2023-04-25T04:07:09.924Z,9.85
2023-04-25T04:09:41.720Z,14.25
2023-04-25T04:12:15.629Z,14.50
2023-04-25T04:14:44.424Z,13.45
2023-04-25T04:17:13.010Z,11.60
2023-04-25T04:19:41.689Z,13.88
2023-04-25T04:22:15.192Z,12.77
2023-04-25T04:24:44.859Z,14.73
2023-04-25T04:27:14.784Z,11.65
2023-04-25T04:30:10.662Z,10.13
2023-04-25T04:32:50.696Z,14.55
2023-04-25T04:35:19.626Z,13.20
2023-04-25T04:37:50.429Z,15.73
2023-04-25T04:40:21.548Z,13.20
2023-04-25T04:43:11.421Z,12.15
2023-04-25T04:45:58.861Z,12.60
2023-04-25T04:48:54.968Z,9.75
2023-04-25T04:51:45.592Z,12.05
2023-04-25T04:54:33.305Z,10.52
2023-04-25T04:57:34.770Z,9.75
2023-04-25T05:00:16.616Z,11.93
2023-04-25T05:03:10.238Z,9.23
2023-04-25T05:06:06.418Z,16.15
2023-04-25T05:08:46.236Z,14.88
2023-04-25T05:11:45.204Z,16.27
2023-04-25T05:14:41.022Z,11.10
2023-04-25T05:17:18.822Z,12.35
2023-04-25T05:20:07.484Z,16.73
2023-04-25T05:22:56.316Z,7.78
2023-04-25T05:25:43.381Z,13.57
2023-04-25T05:28:39.425Z,13.65
2023-04-25T05:31:25.987Z,14.20
2023-04-25T05:34:02.845Z,11.65
2023-04-25T05:36:42.671Z,13.63
2023-04-25T05:39:11.543Z,12.35
2023-04-25T05:42:18.617Z,9.13
2023-04-25T05:44:57.175Z,13.20
2023-04-25T05:47:33.305Z,15.25
2023-04-25T05:50:20.126Z,10.45
2023-04-25T05:52:55.927Z,11.98
2023-04-25T05:55:32.018Z,14.32
2023-04-25T05:58:03.191Z,10.63
2023-04-25T06:00:33.219Z,10.45
2023-04-25T06:03:02.267Z,16.58
2023-04-25T06:05:31.261Z,13.48
2023-04-25T06:08:01.550Z,14.98
2023-04-25T06:10:30.212Z,16.42
2023-04-25T06:12:58.804Z,12.50
2023-04-25T06:15:29.062Z,15.40
2023-04-25T06:17:59.791Z,12.23
2023-04-25T06:20:28.657Z,12.40
2023-04-25T06:23:00.211Z,14.32
2023-04-25T06:26:04.368Z,18.83
2023-04-25T06:28:34.566Z,15.27
2023-04-25T06:31:03.371Z,14.00
2023-04-25T06:33:33.554Z,12.27
2023-04-25T06:36:02.767Z,14.90
2023-04-25T06:38:32.062Z,19.25
2023-04-25T06:41:00.707Z,10.35
2023-04-25T06:43:34.460Z,16.33
2023-04-25T06:46:26.252Z,18.10
2023-04-25T06:48:57.787Z,18.85
2023-04-25T06:51:29.436Z,19.08
2023-04-25T06:53:58.331Z,18.65
2023-04-25T06:56:32.774Z,13.75
2023-04-25T06:59:07.381Z,16.80
2023-04-25T07:01:38.736Z,14.75
2023-04-25T07:04:14.011Z,15.18
2023-04-25T07:06:49.266Z,17.70
2023-04-25T07:09:20.865Z,12.90
2023-04-25T07:11:51.276Z,13.77
2023-04-25T07:14:19.852Z,18.10
2023-04-25T07:16:48.525Z,13.43
2023-04-25T07:19:18.445Z,11.90
2023-04-25T07:21:47.222Z,14.45
2023-04-25T07:24:15.805Z,11.95
2023-04-25T07:26:48.005Z,13.98
2023-04-25T07:29:28.870Z,13.55
2023-04-25T07:31:57.626Z,13.68
2023-04-25T07:34:27.637Z,21.23
2023-04-25T07:36:56.469Z,14.95
2023-04-25T07:39:27.773Z,12.18
2023-04-25T07:41:57.123Z,13.63
2023-04-25T07:44:31.346Z,14.95
2023-04-25T07:47:01.439Z,12.98
2023-04-25T07:49:34.544Z,12.80
2023-04-25T07:52:03.837Z,20.45
2023-04-25T07:54:32.693Z,14.10
2023-04-25T07:57:08.039Z,12.02
2023-04-25T07:59:37.353Z,15.30
2023-04-25T08:02:07.283Z,12.98
2023-04-25T08:04:37.529Z,10.90
2023-04-25T08:07:10.672Z,11.85
2023-04-25T08:09:50.724Z,13.80
2023-04-25T08:12:27.275Z,14.63
2023-04-25T08:14:55.836Z,10.35
2023-04-25T08:17:26.761Z,9.52
2023-04-25T08:19:57.956Z,14.70
2023-04-25T08:22:32.159Z,8.70
2023-04-25T08:25:16.642Z,12.05
2023-04-25T08:27:45.656Z,10.52
2023-04-25T08:30:15.199Z,13.15
2023-04-25T08:32:44.876Z,11.57
2023-04-25T08:35:30.036Z,8.65
2023-04-25T08:37:58.764Z,12.13
2023-04-25T08:40:31.093Z,9.52
2023-04-25T08:43:07.657Z,8.25
2023-04-25T08:45:37.860Z,15.77
2023-04-25T08:48:08.966Z,16.13
2023-04-25T08:50:41.630Z,7.82
2023-04-25T08:53:15.014Z,10.18
2023-04-25T08:55:44.442Z,12.77
2023-04-25T08:58:13.442Z,12.90
2023-04-25T09:00:42.324Z,11.57
2023-04-25T09:03:11.340Z,12.88
2023-04-25T09:05:45.077Z,7.30
2023-04-25T09:08:13.751Z,9.13
2023-04-25T09:10:44.184Z,16.35
2023-04-25T09:13:15.773Z,9.25
2023-04-25T09:16:03.507Z,9.40
2023-04-25T09:18:40.482Z,9.25
2023-04-25T09:21:14.584Z,8.68
2023-04-25T09:23:48.569Z,9.50
2023-04-25T09:26:18.926Z,12.73
2023-04-25T09:28:49.178Z,8.32
2023-04-25T09:31:25.170Z,11.85
2023-04-25T09:34:02.099Z,5.80
2023-04-25T09:36:36.981Z,5.60
2023-04-25T09:39:30.708Z,12.32
2023-04-25T09:42:07.119Z,8.43
2023-04-25T09:44:37.688Z,10.40
2023-04-25T09:47:07.690Z,9.65
2023-04-25T09:49:36.208Z,6.93
2023-04-25T09:52:10.022Z,6.35
2023-04-25T09:54:53.420Z,6.10
2023-04-25T09:57:28.805Z,12.60
2023-04-25T10:00:04.343Z,8.57
2023-04-25T10:02:44.808Z,7.65
2023-04-25T10:05:21.472Z,10.05
2023-04-25T10:07:51.766Z,9.82
2023-04-25T10:10:24.284Z,6.90
2023-04-25T10:12:53.442Z,7.57
2023-04-25T10:15:23.057Z,9.57
2023-04-25T10:17:52.533Z,7.72
2023-04-25T10:20:21.274Z,6.55
2023-04-25T10:22:57.288Z,5.65
2023-04-25T10:25:26.442Z,7.28
2023-04-25T10:27:55.535Z,6.05
2023-04-25T10:30:24.133Z,6.45
2023-04-25T10:32:52.748Z,7.60
2023-04-25T10:35:26.471Z,6.05
2023-04-25T10:38:13.581Z,6.45
2023-04-25T10:40:42.221Z,3.90
2023-04-25T10:43:42.214Z,7.55
2023-04-25T10:46:21.714Z,5.90
2023-04-25T10:48:52.046Z,8.13
2023-04-25T10:51:23.472Z,4.55
2023-04-25T10:54:03.453Z,9.60
2023-04-25T10:56:33.340Z,9.52
2023-04-25T10:59:11.056Z,6.50
2023-04-25T11:01:41.902Z,8.90
2023-04-25T11:04:22.812Z,8.65
2023-04-25T11:07:07.357Z,11.63
2023-04-25T11:09:41.053Z,12.38
2023-04-25T11:12:12.608Z,8.43
2023-04-25T11:17:15.043Z,7.10
2023-04-25T11:19:43.668Z,8.23
2023-04-25T11:22:12.573Z,9.50
2023-04-25T11:24:43.794Z,9.57
2023-04-25T11:27:12.483Z,9.13
2023-04-25T11:29:41.237Z,6.13
2023-04-25T11:32:10.288Z,8.80
2023-04-25T11:34:38.933Z,15.35
2023-04-25T11:37:07.992Z,5.85
2023-04-25T11:39:36.812Z,7.43
2023-04-25T11:42:08.349Z,7.80
2023-04-25T11:44:37.570Z,10.35
2023-04-25T11:47:06.145Z,9.73
2023-04-25T11:49:36.167Z,6.85
2023-04-25T11:52:05.101Z,7.13
2023-04-25T11:54:34.048Z,10.65
2023-04-25T11:57:02.778Z,6.70
2023-04-25T11:59:32.820Z,8.65
2023-04-25T12:02:02.778Z,8.77
2023-04-25T12:04:33.604Z,7.35
2023-04-25T12:07:03.287Z,7.53
2023-04-25T12:09:33.480Z,9.85
2023-04-25T12:12:04.712Z,7.45
2023-04-25T12:14:36.958Z,6.65
2023-04-25T12:17:09.015Z,5.05
2023-04-25T12:19:41.180Z,6.63
2023-04-25T12:22:23.168Z,3.53
2023-04-25T12:24:54.080Z,6.53
2023-04-25T12:27:22.773Z,8.60
2023-04-25T12:29:57.284Z,4.18
2023-04-25T12:32:26.093Z,5.85
2023-04-25T12:34:54.781Z,5.55
2023-04-25T12:37:23.350Z,4.90
2023-04-25T12:39:52.307Z,4.30
2023-04-25T12:42:20.897Z,5.72
2023-04-25T12:44:49.471Z,9.75
2023-04-25T12:47:19.529Z,5.05
2023-04-25T12:49:48.029Z,7.07
2023-04-25T12:52:16.680Z,5.13
2023-04-25T12:54:46.738Z,8.07
2023-04-25T12:57:15.439Z,4.25
2023-04-25T12:59:43.963Z,14.15
2023-04-25T13:02:12.929Z,10.52
2023-04-25T13:04:42.963Z,6.43
2023-04-25T13:07:11.737Z,5.65
2023-04-25T13:09:40.396Z,10.32
2023-04-25T13:12:09.079Z,8.35
2023-04-25T13:14:37.645Z,5.30
2023-04-25T13:17:06.334Z,3.58
2023-04-25T13:19:35.076Z,6.35
2023-04-25T13:22:05.621Z,6.03
2023-04-25T13:24:34.566Z,4.82
2023-04-25T13:27:04.260Z,9.73
2023-04-25T13:29:35.675Z,5.45
2023-04-25T13:32:04.693Z,6.07
2023-04-25T13:34:33.363Z,5.55
2023-04-25T13:37:02.391Z,6.20
2023-04-25T13:39:32.371Z,4.88
2023-04-25T13:42:01.157Z,4.25
2023-04-25T13:44:29.719Z,4.55
2023-04-25T13:46:58.293Z,7.15
2023-04-25T13:49:26.900Z,4.22
2023-04-25T13:51:55.433Z,7.10
2023-04-25T13:54:24.070Z,7.20
2023-04-25T13:56:56.379Z,3.38
2023-04-25T13:59:25.046Z,7.63
2023-04-25T14:01:53.891Z,5.97
2023-04-25T14:04:22.715Z,4.97
2023-04-25T14:06:51.744Z,3.55
2023-04-25T14:09:21.864Z,7.38
2023-04-25T14:11:50.541Z,6.65
2023-04-25T14:14:20.897Z,6.22
2023-04-25T14:16:49.929Z,3.22
2023-04-25T14:19:20.889Z,3.55
2023-04-25T14:21:50.670Z,3.80
2023-04-25T14:24:19.302Z,4.57
2023-04-25T14:26:47.890Z,8.23
2023-04-25T14:29:16.638Z,5.88
2023-04-25T14:31:46.694Z,5.05
2023-04-25T14:34:15.460Z,6.38
2023-04-25T14:36:43.980Z,6.30
2023-04-25T14:39:13.536Z,5.00
2023-04-25T14:41:42.144Z,8.02
2023-04-25T14:44:10.783Z,5.68
2023-04-25T14:46:40.693Z,6.45
2023-04-25T14:49:10.707Z,6.97
2023-04-25T14:51:39.298Z,7.50
2023-04-25T14:54:07.835Z,8.55
2023-04-25T14:56:36.368Z,6.38
2023-04-25T14:59:05.114Z,3.92
2023-04-25T15:01:33.897Z,5.28
2023-04-25T15:04:02.857Z,10.43
2023-04-25T15:06:33.007Z,3.72
2023-04-25T15:09:01.609Z,5.32
2023-04-25T15:11:30.331Z,2.28
2023-04-25T15:13:59.094Z,5.47
2023-04-25T15:16:27.861Z,8.27
2023-04-25T15:18:56.393Z,3.38
2023-04-25T15:21:25.504Z,2.72
2023-04-25T15:23:56.083Z,3.55
2023-04-25T15:26:24.838Z,5.53
2023-04-25T15:28:53.546Z,1.80
2023-04-25T15:31:22.388Z,2.67
2023-04-25T15:33:51.604Z,2.67
2023-04-25T15:36:21.672Z,2.20
2023-04-25T15:38:50.757Z,3.45
2023-04-25T15:41:21.174Z,3.30
2023-04-25T15:43:50.309Z,2.35
2023-04-25T15:46:19.122Z,5.32
2023-04-25T15:48:47.863Z,5.70
2023-04-25T15:51:17.205Z,3.50
2023-04-25T15:53:45.855Z,6.47
2023-04-25T15:56:14.495Z,3.58
2023-04-25T15:58:44.430Z,3.00
2023-04-25T16:01:13.652Z,4.05
2023-04-25T16:03:42.578Z,3.00
2023-04-25T16:06:11.218Z,3.80
2023-04-25T16:08:39.988Z,6.10
2023-04-25T16:11:09.112Z,2.55
2023-04-25T16:13:37.634Z,2.25
2023-04-25T16:16:08.183Z,4.85
2023-04-25T16:18:37.067Z,4.15
2023-04-25T16:21:05.970Z,2.65
2023-04-25T16:23:34.854Z,5.97
2023-04-25T16:26:03.492Z,2.88
2023-04-25T16:28:32.154Z,5.28
2023-04-25T16:31:00.900Z,4.78
2023-04-25T16:33:31.045Z,3.05
2023-04-25T16:35:59.908Z,3.22
2023-04-25T16:38:28.510Z,2.75
2023-04-25T16:40:57.207Z,5.07
2023-04-25T16:43:25.836Z,3.20
2023-04-25T16:45:54.403Z,3.05
2023-04-25T16:48:24.444Z,2.75
2023-04-25T16:50:54.651Z,5.78
2023-04-25T16:53:23.683Z,4.05
2023-04-25T16:55:52.207Z,4.00
2023-04-25T16:58:21.859Z,2.28
2023-04-25T17:00:50.516Z,2.97
2023-04-25T17:03:19.238Z,4.07
2023-04-25T17:05:49.548Z,4.07
2023-04-25T17:08:19.574Z,3.20
2023-04-25T17:10:48.040Z,3.83
2023-04-25T17:13:16.662Z,1.95
2023-04-25T17:15:45.440Z,4.28
2023-04-25T17:18:14.230Z,2.92
2023-04-25T17:20:42.826Z,5.70
2023-04-25T17:23:12.709Z,4.28
2023-04-25T17:25:42.757Z,2.58
2023-04-25T17:28:11.389Z,2.78
2023-04-25T17:30:43.245Z,3.80
2023-04-25T17:33:11.873Z,5.00
2023-04-25T17:35:40.619Z,2.30
2023-04-25T17:38:09.996Z,7.25
2023-04-25T17:40:38.556Z,5.05
2023-04-25T17:43:08.440Z,3.15
2023-04-25T17:45:37.010Z,4.25
2023-04-25T17:48:06.469Z,4.07
2023-04-25T17:50:35.112Z,3.35
2023-04-25T17:53:03.967Z,2.20
2023-04-25T17:55:32.711Z,4.00
2023-04-25T17:58:01.513Z,3.95
2023-04-25T18:00:33.522Z,2.50
2023-04-25T18:03:02.239Z,3.65
2023-04-25T18:05:32.636Z,3.85
2023-04-25T18:08:01.451Z,2.42
2023-04-25T18:10:30.043Z,2.97
2023-04-25T18:12:58.747Z,5.70
2023-04-25T18:15:28.657Z,4.47
2023-04-25T18:17:58.797Z,5.80
2023-04-25T18:20:28.530Z,2.75
2023-04-25T18:22:57.408Z,5.53
2023-04-25T18:25:26.114Z,6.75
2023-04-25T18:27:54.762Z,4.32
2023-04-25T18:30:23.558Z,3.50
2023-04-25T18:32:52.217Z,4.50
2023-04-25T18:35:22.593Z,5.75
2023-04-25T18:37:51.266Z,4.88
2023-04-25T18:40:19.827Z,4.13
2023-04-25T18:42:48.844Z,5.80
2023-04-25T18:45:17.449Z,6.18
2023-04-25T18:47:46.593Z,4.07
2023-04-25T18:50:15.542Z,4.05
2023-04-25T18:52:45.410Z,4.18
2023-04-25T18:55:13.975Z,4.15
2023-04-25T18:57:42.980Z,4.95
2023-04-25T19:00:12.388Z,5.40
2023-04-25T19:02:41.388Z,7.72
2023-04-25T19:05:11.116Z,7.57
2023-04-25T19:07:40.463Z,6.15
2023-04-25T19:10:11.708Z,7.20
2023-04-25T19:12:40.219Z,6.57
2023-04-25T19:15:09.816Z,4.45
2023-04-25T19:17:38.523Z,2.97
2023-04-25T19:20:08.945Z,3.70
2023-04-25T19:22:37.522Z,4.82
2023-04-25T19:25:10.668Z,5.00
2023-04-25T19:27:41.225Z,4.43
2023-04-25T19:30:10.973Z,5.53
2023-04-25T19:32:40.122Z,3.30
2023-04-25T19:35:11.781Z,6.35
2023-04-25T19:37:46.198Z,4.97
2023-04-25T19:40:16.717Z,4.75
2023-04-25T19:42:46.701Z,6.32
2023-04-25T19:45:15.323Z,4.30
2023-04-25T19:47:44.819Z,4.80
2023-04-25T19:50:14.012Z,7.55
2023-04-25T19:52:42.730Z,5.28
2023-04-25T19:55:11.821Z,3.78
2023-04-25T19:57:40.866Z,4.50
2023-04-25T20:00:14.404Z,3.67
2023-04-25T20:02:45.299Z,4.75
2023-04-25T20:05:16.206Z,6.75
2023-04-25T20:07:44.934Z,11.10
2023-04-25T20:10:14.165Z,8.43
2023-04-25T20:12:42.795Z,9.65
2023-04-25T20:15:13.386Z,4.50
2023-04-25T20:17:42.525Z,7.20
2023-04-25T20:20:12.353Z,3.40
2023-04-25T20:22:41.341Z,4.25
2023-04-25T20:25:12.066Z,3.58
2023-04-25T20:27:40.744Z,4.63
2023-04-25T20:30:11.912Z,6.05
2023-04-25T20:32:42.265Z,4.75
2023-04-25T20:35:11.202Z,7.28
2023-04-25T20:37:39.731Z,7.10
2023-04-25T20:40:09.906Z,3.90
2023-04-25T20:42:38.829Z,5.18
2023-04-25T20:45:13.439Z,7.43
2023-04-25T20:47:44.492Z,5.18
2023-04-25T20:50:13.412Z,4.68
2023-04-25T20:52:42.133Z,5.25
2023-04-25T20:55:11.998Z,7.18
2023-04-25T20:57:40.820Z,4.32
2023-04-25T21:00:18.319Z,4.93
2023-04-25T21:02:48.425Z,4.78
2023-04-25T21:05:17.172Z,3.53
2023-04-25T21:07:46.812Z,6.25
2023-04-25T21:10:15.900Z,4.30
2023-04-25T21:12:47.741Z,3.95
2023-04-25T21:15:18.107Z,5.20
2023-04-25T21:17:48.241Z,4.68
2023-04-25T21:20:17.849Z,5.40
2023-04-25T21:22:50.449Z,3.70
2023-04-25T21:25:24.115Z,3.60
2023-04-25T21:27:53.653Z,6.97
2023-04-25T21:30:23.919Z,6.47
2023-04-25T21:32:54.047Z,4.55
2023-04-25T21:35:23.501Z,4.72
2023-04-25T21:37:52.632Z,6.72
2023-04-25T21:40:21.682Z,4.53
2023-04-25T21:42:52.671Z,6.55
2023-04-25T21:45:21.736Z,9.75
2023-04-25T21:47:51.099Z,5.97
2023-04-25T21:50:21.478Z,6.30
2023-04-25T21:52:50.155Z,4.45
2023-04-25T21:55:19.757Z,3.60
2023-04-25T21:57:48.492Z,6.65
2023-04-25T22:00:24.611Z,6.60
2023-04-25T22:02:53.901Z,5.88
2023-04-25T22:05:26.472Z,4.57
2023-04-25T22:07:57.006Z,6.13
2023-04-25T22:10:26.370Z,6.00
2023-04-25T22:12:55.244Z,9.05
2023-04-25T22:15:24.442Z,3.95
2023-04-25T22:17:55.133Z,10.45
2023-04-25T22:20:26.456Z,3.67
2023-04-25T22:22:56.384Z,5.28
2023-04-25T22:25:25.220Z,8.65
2023-04-25T22:27:55.278Z,3.25
2023-04-25T22:30:24.013Z,5.88
2023-04-25T22:32:52.989Z,4.93
2023-04-25T22:35:21.567Z,6.28
2023-04-25T22:37:51.572Z,7.15
2023-04-25T22:40:20.272Z,5.80
2023-04-25T22:42:48.792Z,6.55
2023-04-25T22:45:17.697Z,3.58
2023-04-25T22:47:46.494Z,4.22
2023-04-25T22:50:16.802Z,6.20
2023-04-25T22:52:47.953Z,4.40
2023-04-25T22:55:17.889Z,5.82
2023-04-25T22:57:46.700Z,3.90
2023-04-25T23:00:20.182Z,4.45
2023-04-25T23:02:50.407Z,3.15
2023-04-25T23:05:19.418Z,5.15
2023-04-25T23:07:48.384Z,4.18
2023-04-25T23:10:19.284Z,6.68
2023-04-25T23:12:49.350Z,3.17
2023-04-25T23:15:17.972Z,4.00
2023-04-25T23:17:46.640Z,7.63
2023-04-25T23:20:15.364Z,5.68
2023-04-25T23:22:43.916Z,4.40
2023-04-25T23:25:12.759Z,4.45
2023-04-25T23:27:43.119Z,3.50
2023-04-25T23:30:12.875Z,6.43
2023-04-25T23:32:42.038Z,6.47
2023-04-25T23:35:12.383Z,7.00
2023-04-25T23:37:41.422Z,5.65
2023-04-25T23:40:12.160Z,6.57
2023-04-25T23:42:43.394Z,3.33
2023-04-25T23:45:12.567Z,4.57
2023-04-25T23:47:41.139Z,5.75
2023-04-25T23:50:10.611Z,7.93
2023-04-25T23:52:39.549Z,5.60
2023-04-25T23:55:09.785Z,3.53
2023-04-25T23:57:38.389Z,5.03
